KSAA/SAA METAR and TAF weather

Enter ICAO airport designator
Station Type Date Time Source
KSAA METAR 2019/02/23 22:55 UTC NOAA

KSAA 232255Z AUTO 23019G29KT 10SM SCT060 BKN065 OVC100 M06/M13 A2998 RMK AO2


Station Type Date Time Source
KSAA Decoded METAR 2019/02/23 22:55 UTC NOAA

Station name not available
Feb 23, 2019 - 05:55 PM EST / 2019.02.23 2255 UTC
Wind: from the SW (230 degrees) at 22 MPH (19 KT) gusting to 33 MPH (29 KT):0
Visibility: 10 mile(s):0
Sky conditions: overcast
Temperature: 21 F (-6 C)
Windchill: 5 F (-15 C):1
Dew Point: 8 F (-13 C)
Relative Humidity: 57%
Pressure (altimeter): 29.98 in. Hg (1015 hPa)
ob: KSAA 232255Z AUTO 23019G29KT 10SM SCT060 BKN065 OVC100 M06/M13 A2998 RMK AO2
cycle: 23

Station Type Date Time Source
KSAA TAF UTC NOAA

Error!


Example: see airport list